Terminal Aerodrome Forecast
Issued by NWS

Home | Current Version | Previous Version | Text Only | Print | Product List | Glossary On
Versions: 1 2 3 4 5 6 7 8 9 10 11 12 13 14 15 16 17 18 19 20 21 22 23 24 25 26 27 28 29 30 31 32
000
FTUS43 KLOT 301730
TAFMDW
TAF
KMDW 301730Z 3018/3118 27015G23KT P6SM SCT080
     FM310000 10008KT P6SM BKN070
     FM310500 25013KT P6SM SCT100 WS017/25050KT
     FM310900 34012G18KT P6SM SCT010 SCT250
     FM311700 30011G17KT P6SM SCT250=

USA.gov is the U.S. government's official web portal to all federal, state and local government web resources and services.